sensor_id;sensor_type;location;lat;lon;timestamp;pressure;altitude;pressure_sealevel;temperature;humidity
8585;BME280;7180;52.742;11.420;2024-01-25T00:01:25;76880.34;;;-142.35;60.19
8585;BME280;7180;52.742;11.420;2024-01-25T00:03:51;76904.53;;;-142.35;60.39
8585;BME280;7180;52.742;11.420;2024-01-25T00:06:16;76910.59;;;-142.35;60.64
8585;BME280;7180;52.742;11.420;2024-01-25T00:08:41;76926.72;;;-142.35;60.73
8585;BME280;7180;52.742;11.420;2024-01-25T00:11:07;76952.94;;;-142.35;60.58
8585;BME280;7180;52.742;11.420;2024-01-25T00:13:32;76914.63;;;-142.35;60.57
8585;BME280;7180;52.742;11.420;2024-01-25T00:15:57;76898.50;;;-142.35;60.25
8585;BME280;7180;52.742;11.420;2024-01-25T00:18:22;76882.38;;;-142.35;60.40
8585;BME280;7180;52.742;11.420;2024-01-25T00:20:48;76872.28;;;-142.35;60.27
8585;BME280;7180;52.742;11.420;2024-01-25T00:23:13;76858.19;;;-142.35;59.90
8585;BME280;7180;52.742;11.420;2024-01-25T00:25:39;76860.19;;;-142.35;60.01
8585;BME280;7180;52.742;11.420;2024-01-25T00:28:04;76862.22;;;-142.35;60.13
8585;BME280;7180;52.742;11.420;2024-01-25T00:30:29;76821.88;;;-142.35;59.83
8585;BME280;7180;52.742;11.420;2024-01-25T00:32:57;76809.78;;;-142.35;59.79
8585;BME280;7180;52.742;11.420;2024-01-25T00:35:24;76793.66;;;-142.35;59.70
8585;BME280;7180;52.742;11.420;2024-01-25T00:37:49;76793.66;;;-142.35;59.61
8585;BME280;7180;52.742;11.420;2024-01-25T00:40:15;76789.63;;;-142.35;59.57
8585;BME280;7180;52.742;11.420;2024-01-25T00:42:42;76777.53;;;-142.35;59.42
8585;BME280;7180;52.742;11.420;2024-01-25T00:45:08;76765.44;;;-142.35;59.56
8585;BME280;7180;52.742;11.420;2024-01-25T00:47:34;76769.47;;;-142.35;59.41
8585;BME280;7180;52.742;11.420;2024-01-25T00:50:00;76793.66;;;-142.35;59.62
8585;BME280;7180;52.742;11.420;2024-01-25T00:52:25;76773.50;;;-142.35;59.78
8585;BME280;7180;52.742;11.420;2024-01-25T00:54:51;76761.41;;;-142.35;59.56
8585;BME280;7180;52.742;11.420;2024-01-25T00:57:16;76755.38;;;-142.35;59.55
8585;BME280;7180;52.742;11.420;2024-01-25T00:59:42;76759.41;;;-142.35;59.71
8585;BME280;7180;52.742;11.420;2024-01-25T01:02:11;76797.69;;;-142.35;59.55
8585;BME280;7180;52.742;11.420;2024-01-25T01:04:37;76825.91;;;-142.35;60.01
8585;BME280;7180;52.742;11.420;2024-01-25T01:07:02;76829.94;;;-142.35;59.98
8585;BME280;7180;52.742;11.420;2024-01-25T01:09:28;76850.09;;;-142.35;59.73
8585;BME280;7180;52.742;11.420;2024-01-25T01:11:53;76854.16;;;-142.35;60.10
8585;BME280;7180;52.742;11.420;2024-01-25T01:14:18;76874.31;;;-142.35;60.13
8585;BME280;7180;52.742;11.420;2024-01-25T01:16:44;76856.16;;;-142.35;59.61
8585;BME280;7180;52.742;11.420;2024-01-25T01:19:09;76852.13;;;-142.35;59.79
8585;BME280;7180;52.742;11.420;2024-01-25T01:21:34;76838.00;;;-142.35;59.89
8585;BME280;7180;52.742;11.420;2024-01-25T01:24:00;76817.84;;;-142.35;59.63
8585;BME280;7180;52.742;11.420;2024-01-25T01:26:26;76825.91;;;-142.35;59.73
8585;BME280;7180;52.742;11.420;2024-01-25T01:28:51;76842.03;;;-142.35;59.78
8585;BME280;7180;52.742;11.420;2024-01-25T01:31:17;76836.00;;;-142.35;60.00
8585;BME280;7180;52.742;11.420;2024-01-25T01:33:42;76862.22;;;-142.35;59.93
8585;BME280;7180;52.742;11.420;2024-01-25T01:36:07;76866.25;;;-142.35;60.09
8585;BME280;7180;52.742;11.420;2024-01-25T01:38:32;76884.38;;;-142.35;60.08
8585;BME280;7180;52.742;11.420;2024-01-25T01:40:58;76902.53;;;-142.35;60.06
8585;BME280;7180;52.742;11.420;2024-01-25T01:43:23;76906.56;;;-142.35;60.23
8585;BME280;7180;52.742;11.420;2024-01-25T01:45:49;76930.75;;;-142.35;60.25
8585;BME280;7180;52.742;11.420;2024-01-25T01:48:15;76950.91;;;-142.35;60.41
8585;BME280;7180;52.742;11.420;2024-01-25T01:50:41;76971.06;;;-142.35;60.35
8585;BME280;7180;52.742;11.420;2024-01-25T01:53:07;76987.19;;;-142.35;60.41
8585;BME280;7180;52.742;11.420;2024-01-25T01:55:33;76991.22;;;-142.35;60.65
8585;BME280;7180;52.742;11.420;2024-01-25T01:57:59;77027.53;;;-142.35;60.76
8585;BME280;7180;52.742;11.420;2024-01-25T02:00:25;77035.59;;;-142.35;60.84
8585;BME280;7180;52.742;11.420;2024-01-25T02:02:50;77043.66;;;-142.35;61.00
8585;BME280;7180;52.742;11.420;2024-01-25T02:05:16;77015.41;;;-142.35;60.73
8585;BME280;7180;52.742;11.420;2024-01-25T02:07:42;76991.22;;;-142.35;60.51
8585;BME280;7180;52.742;11.420;2024-01-25T02:10:08;76993.25;;;-142.35;60.74
8585;BME280;7180;52.742;11.420;2024-01-25T02:12:33;76987.19;;;-142.35;60.62
8585;BME280;7180;52.742;11.420;2024-01-25T02:14:58;76999.28;;;-142.35;60.67
8585;BME280;7180;52.742;11.420;2024-01-25T02:17:24;77019.47;;;-142.35;60.85
8585;BME280;7180;52.742;11.420;2024-01-25T02:19:49;77015.41;;;-142.35;60.58
8585;BME280;7180;52.742;11.420;2024-01-25T02:22:18;77011.38;;;-142.35;60.55
8585;BME280;7180;52.742;11.420;2024-01-25T02:24:44;77007.34;;;-142.35;60.70
8585;BME280;7180;52.742;11.420;2024-01-25T02:27:09;76999.28;;;-142.35;60.57
8585;BME280;7180;52.742;11.420;2024-01-25T02:29:34;76999.28;;;-142.35;60.65
8585;BME280;7180;52.742;11.420;2024-01-25T02:31:59;76975.09;;;-142.35;60.42
8585;BME280;7180;52.742;11.420;2024-01-25T02:34:25;76965.03;;;-142.35;60.49
8585;BME280;7180;52.742;11.420;2024-01-25T02:36:50;76954.94;;;-142.35;60.35
8585;BME280;7180;52.742;11.420;2024-01-25T02:39:15;76934.78;;;-142.35;60.13
8585;BME280;7180;52.742;11.420;2024-01-25T02:41:41;76952.94;;;-142.35;60.35
8585;BME280;7180;52.742;11.420;2024-01-25T02:44:06;76932.75;;;-142.35;60.23
8585;BME280;7180;52.742;11.420;2024-01-25T02:46:32;76958.97;;;-142.35;60.40
8585;BME280;7180;52.742;11.420;2024-01-25T02:48:57;76975.09;;;-142.35;60.60
8585;BME280;7180;52.742;11.420;2024-01-25T02:51:22;76958.97;;;-142.35;60.28
8585;BME280;7180;52.742;11.420;2024-01-25T02:53:47;76950.91;;;-142.35;60.01
8585;BME280;7180;52.742;11.420;2024-01-25T02:56:13;76942.84;;;-142.35;60.10
8585;BME280;7180;52.742;11.420;2024-01-25T02:58:38;76948.91;;;-142.35;60.44
8585;BME280;7180;52.742;11.420;2024-01-25T03:01:03;76946.88;;;-142.35;60.08
8585;BME280;7180;52.742;11.420;2024-01-25T03:03:29;76940.81;;;-142.35;60.33
8585;BME280;7180;52.742;11.420;2024-01-25T03:05:54;76942.84;;;-142.35;60.02
8585;BME280;7180;52.742;11.420;2024-01-25T03:08:19;76914.63;;;-142.35;60.05
8585;BME280;7180;52.742;11.420;2024-01-25T03:10:46;76926.72;;;-142.35;60.21
8585;BME280;7180;52.742;11.420;2024-01-25T03:13:14;76928.72;;;-142.35;60.17
8585;BME280;7180;52.742;11.420;2024-01-25T03:15:39;76950.91;;;-142.35;60.11
8585;BME280;7180;52.742;11.420;2024-01-25T03:18:05;76948.91;;;-142.35;60.33
8585;BME280;7180;52.742;11.420;2024-01-25T03:20:30;76942.84;;;-142.35;59.98
8585;BME280;7180;52.742;11.420;2024-01-25T03:22:55;76936.78;;;-142.35;60.20
8585;BME280;7180;52.742;11.420;2024-01-25T03:25:20;76922.69;;;-142.35;59.97
8585;BME280;7180;52.742;11.420;2024-01-25T03:27:46;76924.69;;;-142.35;59.82
8585;BME280;7180;52.742;11.420;2024-01-25T03:30:11;76926.72;;;-142.35;59.83
8585;BME280;7180;52.742;11.420;2024-01-25T03:32:37;76914.63;;;-142.35;59.89
8585;BME280;7180;52.742;11.420;2024-01-25T03:35:02;76918.66;;;-142.35;60.01
8585;BME280;7180;52.742;11.420;2024-01-25T03:37:27;76922.69;;;-142.35;59.87
8585;BME280;7180;52.742;11.420;2024-01-25T03:39:53;76940.81;;;-142.35;60.03
8585;BME280;7180;52.742;11.420;2024-01-25T03:42:18;76934.78;;;-142.35;59.90
8585;BME280;7180;52.742;11.420;2024-01-25T03:44:43;76938.81;;;-142.35;59.96
8585;BME280;7180;52.742;11.420;2024-01-25T03:47:10;76940.81;;;-142.35;59.85
8585;BME280;7180;52.742;11.420;2024-01-25T03:49:35;76918.66;;;-142.35;59.73
8585;BME280;7180;52.742;11.420;2024-01-25T03:52:00;76922.69;;;-142.35;59.61
8585;BME280;7180;52.742;11.420;2024-01-25T03:54:26;76922.69;;;-142.35;59.48
8585;BME280;7180;52.742;11.420;2024-01-25T03:56:51;76930.75;;;-142.35;59.73
8585;BME280;7180;52.742;11.420;2024-01-25T03:59:16;76926.72;;;-142.35;59.79
8585;BME280;7180;52.742;11.420;2024-01-25T04:01:45;76914.63;;;-142.35;59.71
8585;BME280;7180;52.742;11.420;2024-01-25T04:04:12;76908.56;;;-142.35;59.69
8585;BME280;7180;52.742;11.420;2024-01-25T04:06:41;76938.81;;;-142.35;59.83
8585;BME280;7180;52.742;11.420;2024-01-25T04:09:07;76906.56;;;-142.35;59.48
8585;BME280;7180;52.742;11.420;2024-01-25T04:11:32;76902.53;;;-142.35;59.66
8585;BME280;7180;52.742;11.420;2024-01-25T04:13:58;76930.75;;;-142.35;59.63
8585;BME280;7180;52.742;11.420;2024-01-25T04:16:23;76904.53;;;-142.35;59.62
8585;BME280;7180;52.742;11.420;2024-01-25T04:18:48;76922.69;;;-142.35;59.56
8585;BME280;7180;52.742;11.420;2024-01-25T04:21:14;76932.75;;;-142.35;59.58
8585;BME280;7180;52.742;11.420;2024-01-25T04:23:39;76956.97;;;-142.35;59.94
8585;BME280;7180;52.742;11.420;2024-01-25T04:26:04;76954.94;;;-142.35;59.72
8585;BME280;7180;52.742;11.420;2024-01-25T04:28:29;76954.94;;;-142.35;59.67
8585;BME280;7180;52.742;11.420;2024-01-25T04:30:55;76950.91;;;-142.35;59.80
8585;BME280;7180;52.742;11.420;2024-01-25T04:33:20;76971.06;;;-142.35;59.79
8585;BME280;7180;52.742;11.420;2024-01-25T04:35:45;76987.19;;;-142.35;59.84
8585;BME280;7180;52.742;11.420;2024-01-25T04:38:10;77003.31;;;-142.35;60.03
8585;BME280;7180;52.742;11.420;2024-01-25T04:40:36;76987.19;;;-142.35;59.95
8585;BME280;7180;52.742;11.420;2024-01-25T04:43:01;76979.13;;;-142.35;59.66
8585;BME280;7180;52.742;11.420;2024-01-25T04:45:26;76987.19;;;-142.35;59.80
8585;BME280;7180;52.742;11.420;2024-01-25T04:47:52;76985.19;;;-142.35;60.03
8585;BME280;7180;52.742;11.420;2024-01-25T04:50:17;76999.28;;;-142.35;60.00
8585;BME280;7180;52.742;11.420;2024-01-25T04:52:42;76987.19;;;-142.35;59.98
8585;BME280;7180;52.742;11.420;2024-01-25T04:55:08;76997.28;;;-142.35;59.96
8585;BME280;7180;52.742;11.420;2024-01-25T04:57:33;77003.31;;;-142.35;59.88
8585;BME280;7180;52.742;11.420;2024-01-25T04:59:58;77025.50;;;-142.35;60.05
8585;BME280;7180;52.742;11.420;2024-01-25T05:02:24;77059.78;;;-142.35;60.21
8585;BME280;7180;52.742;11.420;2024-01-25T05:04:49;77075.91;;;-142.35;60.21
8585;BME280;7180;52.742;11.420;2024-01-25T05:07:14;77096.06;;;-142.35;60.47
8585;BME280;7180;52.742;11.420;2024-01-25T05:09:39;77106.16;;;-142.35;60.60
8585;BME280;7180;52.742;11.420;2024-01-25T05:12:05;77108.16;;;-142.35;60.58
8585;BME280;7180;52.742;11.420;2024-01-25T05:14:31;77124.28;;;-142.35;60.70
8585;BME280;7180;52.742;11.420;2024-01-25T05:16:56;77116.22;;;-142.35;60.49
8585;BME280;7180;52.742;11.420;2024-01-25T05:19:21;77108.16;;;-142.35;60.35
8585;BME280;7180;52.742;11.420;2024-01-25T05:21:46;77138.41;;;-142.35;60.52
8585;BME280;7180;52.742;11.420;2024-01-25T05:24:12;77148.47;;;-142.35;60.79
8585;BME280;7180;52.742;11.420;2024-01-25T05:26:37;77144.44;;;-142.35;60.72
8585;BME280;7180;52.742;11.420;2024-01-25T05:29:03;77136.38;;;-142.35;60.57
8585;BME280;7180;52.742;11.420;2024-01-25T05:31:28;77142.44;;;-142.35;60.50
8585;BME280;7180;52.742;11.420;2024-01-25T05:33:54;77154.53;;;-142.35;60.61
8585;BME280;7180;52.742;11.420;2024-01-25T05:36:19;77166.63;;;-142.35;60.87
8585;BME280;7180;52.742;11.420;2024-01-25T05:38:45;77164.63;;;-142.35;60.82
8585;BME280;7180;52.742;11.420;2024-01-25T05:41:10;77164.63;;;-142.35;60.56
8585;BME280;7180;52.742;11.420;2024-01-25T05:43:35;77158.56;;;-142.35;60.77
8585;BME280;7180;52.742;11.420;2024-01-25T05:46:01;77156.56;;;-142.35;60.84
8585;BME280;7180;52.742;11.420;2024-01-25T05:48:26;77148.47;;;-142.35;60.62
8585;BME280;7180;52.742;11.420;2024-01-25T05:50:51;77168.66;;;-142.35;60.61
8585;BME280;7180;52.742;11.420;2024-01-25T05:53:17;77176.72;;;-142.35;60.74
8585;BME280;7180;52.742;11.420;2024-01-25T05:55:44;77174.69;;;-142.35;60.70
8585;BME280;7180;52.742;11.420;2024-01-25T05:58:10;77192.84;;;-142.35;60.90
8585;BME280;7180;52.742;11.420;2024-01-25T06:00:35;77184.78;;;-142.35;60.52
8585;BME280;7180;52.742;11.420;2024-01-25T06:03:00;77188.81;;;-142.35;60.75
8585;BME280;7180;52.742;11.420;2024-01-25T06:05:25;77202.91;;;-142.35;60.74
8585;BME280;7180;52.742;11.420;2024-01-25T06:07:51;77210.97;;;-142.35;60.84
8585;BME280;7180;52.742;11.420;2024-01-25T06:10:16;77217.03;;;-142.35;60.78
8585;BME280;7180;52.742;11.420;2024-01-25T06:12:41;77217.03;;;-142.35;60.79
8585;BME280;7180;52.742;11.420;2024-01-25T06:15:07;77235.19;;;-142.35;60.75
8585;BME280;7180;52.742;11.420;2024-01-25T06:17:33;77208.97;;;-142.35;60.50
8585;BME280;7180;52.742;11.420;2024-01-25T06:19:58;77217.03;;;-142.35;60.82
8585;BME280;7180;52.742;11.420;2024-01-25T06:22:23;77213.00;;;-142.35;60.68
8585;BME280;7180;52.742;11.420;2024-01-25T06:24:48;77217.03;;;-142.35;60.72
8585;BME280;7180;52.742;11.420;2024-01-25T06:27:14;77223.09;;;-142.35;60.76
8585;BME280;7180;52.742;11.420;2024-01-25T06:29:39;77208.97;;;-142.35;60.75
8585;BME280;7180;52.742;11.420;2024-01-25T06:32:05;77229.13;;;-142.35;60.72
8585;BME280;7180;52.742;11.420;2024-01-25T06:34:31;77223.09;;;-142.35;60.72
8585;BME280;7180;52.742;11.420;2024-01-25T06:36:56;77225.09;;;-142.35;60.57
8585;BME280;7180;52.742;11.420;2024-01-25T06:39:21;77227.13;;;-142.35;60.88
8585;BME280;7180;52.742;11.420;2024-01-25T06:41:46;77241.22;;;-142.35;60.74
8585;BME280;7180;52.742;11.420;2024-01-25T06:44:12;77257.34;;;-142.35;60.96
8585;BME280;7180;52.742;11.420;2024-01-25T06:46:37;77277.53;;;-142.35;61.01
8585;BME280;7180;52.742;11.420;2024-01-25T06:49:02;77301.72;;;-142.35;61.02
8585;BME280;7180;52.742;11.420;2024-01-25T06:51:28;77301.72;;;-142.35;61.07
8585;BME280;7180;52.742;11.420;2024-01-25T06:53:53;77293.66;;;-142.35;61.18
8585;BME280;7180;52.742;11.420;2024-01-25T06:56:19;77313.81;;;-142.35;61.29
8585;BME280;7180;52.742;11.420;2024-01-25T06:58:44;77352.13;;;-142.35;61.41
8585;BME280;7180;52.742;11.420;2024-01-25T07:01:09;77398.50;;;-142.35;61.86
8585;BME280;7180;52.742;11.420;2024-01-25T07:03:35;77434.78;;;-142.35;61.85
8585;BME280;7180;52.742;11.420;2024-01-25T07:06:00;77469.06;;;-142.35;62.06
8585;BME280;7180;52.742;11.420;2024-01-25T07:08:25;77469.06;;;-142.35;62.12
8585;BME280;7180;52.742;11.420;2024-01-25T07:10:50;77483.19;;;-142.35;62.11
8585;BME280;7180;52.742;11.420;2024-01-25T07:13:16;77487.22;;;-142.35;62.12
8585;BME280;7180;52.742;11.420;2024-01-25T07:15:41;77505.34;;;-142.35;62.22
8585;BME280;7180;52.742;11.420;2024-01-25T07:18:07;77533.59;;;-142.35;62.39
8585;BME280;7180;52.742;11.420;2024-01-25T07:20:32;77545.69;;;-142.35;62.49
8585;BME280;7180;52.742;11.420;2024-01-25T07:22:58;77563.81;;;-142.35;62.59
8585;BME280;7180;52.742;11.420;2024-01-25T07:25:23;77584.00;;;-142.35;62.59
8585;BME280;7180;52.742;11.420;2024-01-25T07:27:48;77584.00;;;-142.35;62.45
8585;BME280;7180;52.742;11.420;2024-01-25T07:30:14;77588.03;;;-142.35;62.47
8585;BME280;7180;52.742;11.420;2024-01-25T07:32:40;77596.09;;;-142.35;62.43
8585;BME280;7180;52.742;11.420;2024-01-25T07:35:08;77579.97;;;-142.35;62.33
8585;BME280;7180;52.742;11.420;2024-01-25T07:37:34;77559.78;;;-142.35;62.40
8585;BME280;7180;52.742;11.420;2024-01-25T07:40:00;77551.72;;;-142.35;62.43
8585;BME280;7180;52.742;11.420;2024-01-25T07:42:25;77547.69;;;-142.35;62.41
8585;BME280;7180;52.742;11.420;2024-01-25T07:44:50;77531.56;;;-142.35;62.08
8585;BME280;7180;52.742;11.420;2024-01-25T07:47:15;77529.56;;;-142.35;62.13
8585;BME280;7180;52.742;11.420;2024-01-25T07:49:41;77537.63;;;-142.35;62.18
8585;BME280;7180;52.742;11.420;2024-01-25T07:52:06;77535.59;;;-142.35;61.93
8585;BME280;7180;52.742;11.420;2024-01-25T07:54:31;77521.47;;;-142.35;62.13
8585;BME280;7180;52.742;11.420;2024-01-25T07:56:56;77517.44;;;-142.35;62.13
8585;BME280;7180;52.742;11.420;2024-01-25T07:59:22;77535.59;;;-142.35;62.17
8585;BME280;7180;52.742;11.420;2024-01-25T08:01:47;77515.44;;;-142.35;62.23
8585;BME280;7180;52.742;11.420;2024-01-25T08:04:12;77487.22;;;-142.35;61.82
8585;BME280;7180;52.742;11.420;2024-01-25T08:06:38;77463.00;;;-142.35;61.74
8585;BME280;7180;52.742;11.420;2024-01-25T08:09:03;77434.78;;;-142.35;61.55
8585;BME280;7180;52.742;11.420;2024-01-25T08:11:28;77406.56;;;-142.35;61.56
8585;BME280;7180;52.742;11.420;2024-01-25T08:13:53;77392.44;;;-142.35;61.15
8585;BME280;7180;52.742;11.420;2024-01-25T08:16:19;77360.19;;;-142.35;61.19
8585;BME280;7180;52.742;11.420;2024-01-25T08:18:48;77372.28;;;-142.35;61.34
8585;BME280;7180;52.742;11.420;2024-01-25T08:21:14;77360.19;;;-142.35;60.98
8585;BME280;7180;52.742;11.420;2024-01-25T08:23:39;77327.91;;;-142.35;60.92
8585;BME280;7180;52.742;11.420;2024-01-25T08:26:05;77305.75;;;-142.35;60.85
8585;BME280;7180;52.742;11.420;2024-01-25T08:28:34;77297.69;;;-142.35;60.87
8585;BME280;7180;52.742;11.420;2024-01-25T08:31:00;77275.50;;;-142.35;60.84
8585;BME280;7180;52.742;11.420;2024-01-25T08:33:25;77295.66;;;-142.35;60.67
8585;BME280;7180;52.742;11.420;2024-01-25T08:35:50;77281.56;;;-142.35;60.70
8585;BME280;7180;52.742;11.420;2024-01-25T08:38:16;77269.44;;;-142.35;60.51
8585;BME280;7180;52.742;11.420;2024-01-25T08:40:41;77291.63;;;-142.35;60.86
8585;BME280;7180;52.742;11.420;2024-01-25T08:43:07;77291.63;;;-142.35;60.89
8585;BME280;7180;52.742;11.420;2024-01-25T08:45:32;77269.44;;;-142.35;60.71
8585;BME280;7180;52.742;11.420;2024-01-25T08:47:57;77261.38;;;-142.35;60.45
8585;BME280;7180;52.742;11.420;2024-01-25T08:50:23;77223.09;;;-142.35;60.40
8585;BME280;7180;52.742;11.420;2024-01-25T08:52:48;77188.81;;;-142.35;60.14
8585;BME280;7180;52.742;11.420;2024-01-25T08:55:13;77170.66;;;-142.35;60.10
8585;BME280;7180;52.742;11.420;2024-01-25T08:57:39;77168.66;;;-142.35;60.10
8585;BME280;7180;52.742;11.420;2024-01-25T09:00:06;77148.47;;;-142.35;59.64
8585;BME280;7180;52.742;11.420;2024-01-25T09:02:38;77134.38;;;-142.35;59.85
8585;BME280;7180;52.742;11.420;2024-01-25T09:05:07;77128.31;;;-142.35;59.71
8585;BME280;7180;52.742;11.420;2024-01-25T09:07:34;77110.19;;;-142.35;59.61
8585;BME280;7180;52.742;11.420;2024-01-25T09:09:59;77075.91;;;-142.35;59.48
8585;BME280;7180;52.742;11.420;2024-01-25T09:12:24;77063.81;;;-142.35;59.36
8585;BME280;7180;52.742;11.420;2024-01-25T09:14:50;77047.69;;;-142.35;59.28
8585;BME280;7180;52.742;11.420;2024-01-25T09:17:15;77035.59;;;-142.35;59.23
8585;BME280;7180;52.742;11.420;2024-01-25T09:19:47;77019.47;;;-142.35;58.91
8585;BME280;7180;52.742;11.420;2024-01-25T09:22:12;77019.47;;;-142.35;59.28
8585;BME280;7180;52.742;11.420;2024-01-25T09:24:37;77015.41;;;-142.35;59.16
8585;BME280;7180;52.742;11.420;2024-01-25T09:27:05;77021.47;;;-142.35;59.08
8585;BME280;7180;52.742;11.420;2024-01-25T09:29:30;76993.25;;;-142.35;58.91
8585;BME280;7180;52.742;11.420;2024-01-25T09:31:55;76971.06;;;-142.35;58.79
8585;BME280;7180;52.742;11.420;2024-01-25T09:34:20;76987.19;;;-142.35;58.91
8585;BME280;7180;52.742;11.420;2024-01-25T09:36:46;76973.09;;;-142.35;58.66
8585;BME280;7180;52.742;11.420;2024-01-25T09:39:11;76961.00;;;-142.35;58.62
8585;BME280;7180;52.742;11.420;2024-01-25T09:41:37;76967.03;;;-142.35;58.78
8585;BME280;7180;52.742;11.420;2024-01-25T09:44:03;76963.00;;;-142.35;58.51
8585;BME280;7180;52.742;11.420;2024-01-25T09:46:29;76950.91;;;-142.35;58.50
8585;BME280;7180;52.742;11.420;2024-01-25T09:48:54;76946.88;;;-142.35;58.34
8585;BME280;7180;52.742;11.420;2024-01-25T09:51:20;76876.31;;;-142.35;58.14
8585;BME280;7180;52.742;11.420;2024-01-25T09:53:48;76892.44;;;-142.35;57.99
8585;BME280;7180;52.742;11.420;2024-01-25T09:56:15;76892.44;;;-142.35;58.08
8585;BME280;7180;52.742;11.420;2024-01-25T09:58:43;76870.28;;;-142.35;58.09
8585;BME280;7180;52.742;11.420;2024-01-25T10:01:13;76886.41;;;-142.35;57.86
8585;BME280;7180;52.742;11.420;2024-01-25T10:03:47;76870.28;;;-142.35;57.75
8585;BME280;7180;52.742;11.420;2024-01-25T10:06:14;76860.19;;;-142.35;58.04
8585;BME280;7180;52.742;11.420;2024-01-25T10:08:39;76823.91;;;-142.35;57.70
8585;BME280;7180;52.742;11.420;2024-01-25T10:11:05;76840.03;;;-142.35;57.51
8585;BME280;7180;52.742;11.420;2024-01-25T10:13:31;76807.78;;;-142.35;57.43
8585;BME280;7180;52.742;11.420;2024-01-25T10:15:57;76779.56;;;-142.35;57.20
8585;BME280;7180;52.742;11.420;2024-01-25T10:18:23;76791.66;;;-142.35;57.32
8585;BME280;7180;52.742;11.420;2024-01-25T10:20:49;76789.63;;;-142.35;57.57
8585;BME280;7180;52.742;11.420;2024-01-25T10:23:14;76785.59;;;-142.35;57.29
8585;BME280;7180;52.742;11.420;2024-01-25T10:25:39;76777.53;;;-142.35;57.61
8585;BME280;7180;52.742;11.420;2024-01-25T10:28:06;76761.41;;;-142.35;57.15
8585;BME280;7180;52.742;11.420;2024-01-25T10:30:32;76767.47;;;-142.35;57.04
8585;BME280;7180;52.742;11.420;2024-01-25T10:33:03;76769.47;;;-142.35;57.28
8585;BME280;7180;52.742;11.420;2024-01-25T10:35:30;76791.66;;;-142.35;57.44
8585;BME280;7180;52.742;11.420;2024-01-25T10:37:56;76765.44;;;-142.35;57.38
8585;BME280;7180;52.742;11.420;2024-01-25T10:40:22;76739.25;;;-142.35;57.22
8585;BME280;7180;52.742;11.420;2024-01-25T10:42:47;76751.34;;;-142.35;57.00
8585;BME280;7180;52.742;11.420;2024-01-25T10:45:13;76741.25;;;-142.35;57.17
8585;BME280;7180;52.742;11.420;2024-01-25T10:47:39;76727.13;;;-142.35;56.86
8585;BME280;7180;52.742;11.420;2024-01-25T10:50:12;76757.38;;;-142.35;56.93
8585;BME280;7180;52.742;11.420;2024-01-25T10:52:39;76749.31;;;-142.35;57.01
8585;BME280;7180;52.742;11.420;2024-01-25T10:55:05;76751.34;;;-142.35;57.05
8585;BME280;7180;52.742;11.420;2024-01-25T10:57:42;76759.41;;;-142.35;57.05
8585;BME280;7180;52.742;11.420;2024-01-25T11:00:13;76755.38;;;-142.35;56.80
8585;BME280;7180;52.742;11.420;2024-01-25T11:02:40;76777.53;;;-142.35;57.22
8585;BME280;7180;52.742;11.420;2024-01-25T11:05:13;76773.50;;;-142.35;56.95
8585;BME280;7180;52.742;11.420;2024-01-25T11:07:49;76743.28;;;-142.35;56.77
8585;BME280;7180;52.742;11.420;2024-01-25T11:10:17;76725.13;;;-142.35;56.67
8585;BME280;7180;52.742;11.420;2024-01-25T11:12:49;76702.94;;;-142.35;56.83
8585;BME280;7180;52.742;11.420;2024-01-25T11:15:30;76713.03;;;-142.35;56.94
8585;BME280;7180;52.742;11.420;2024-01-25T11:17:57;76713.03;;;-142.35;56.58
8585;BME280;7180;52.742;11.420;2024-01-25T11:20:24;76731.16;;;-142.35;56.71
8585;BME280;7180;52.742;11.420;2024-01-25T11:23:02;76741.25;;;-142.35;56.78
8585;BME280;7180;52.742;11.420;2024-01-25T11:25:28;76749.31;;;-142.35;56.80
8585;BME280;7180;52.742;11.420;2024-01-25T11:27:55;76737.22;;;-142.35;56.83
8585;BME280;7180;52.742;11.420;2024-01-25T11:30:20;76751.34;;;-142.35;56.83
8585;BME280;7180;52.742;11.420;2024-01-25T11:32:48;76785.59;;;-142.35;57.14
8585;BME280;7180;52.742;11.420;2024-01-25T11:35:14;76803.75;;;-142.35;56.85
8585;BME280;7180;52.742;11.420;2024-01-25T11:37:44;76801.72;;;-142.35;57.10
8585;BME280;7180;52.742;11.420;2024-01-25T11:40:10;76801.72;;;-142.35;56.90
8585;BME280;7180;52.742;11.420;2024-01-25T11:42:36;76789.63;;;-142.35;57.02
8585;BME280;7180;52.742;11.420;2024-01-25T11:45:01;76777.53;;;-142.35;56.63
8585;BME280;7180;52.742;11.420;2024-01-25T11:47:27;76757.38;;;-142.35;56.71
8585;BME280;7180;52.742;11.420;2024-01-25T11:49:52;76757.38;;;-142.35;56.74
8585;BME280;7180;52.742;11.420;2024-01-25T11:52:18;76717.06;;;-142.35;56.45
8585;BME280;7180;52.742;11.420;2024-01-25T11:54:43;76680.78;;;-142.35;56.18
8585;BME280;7180;52.742;11.420;2024-01-25T11:57:08;76644.50;;;-142.35;55.96
8585;BME280;7180;52.742;11.420;2024-01-25T11:59:35;76642.47;;;-142.35;55.95
8585;BME280;7180;52.742;11.420;2024-01-25T12:02:01;76636.44;;;-142.35;55.83
8585;BME280;7180;52.742;11.420;2024-01-25T12:04:26;76612.25;;;-142.35;55.74
8585;BME280;7180;52.742;11.420;2024-01-25T12:06:52;76616.28;;;-142.35;56.00
8585;BME280;7180;52.742;11.420;2024-01-25T12:09:18;76596.13;;;-142.35;55.60
8585;BME280;7180;52.742;11.420;2024-01-25T12:11:43;76557.81;;;-142.35;55.62
8585;BME280;7180;52.742;11.420;2024-01-25T12:14:09;76571.94;;;-142.35;55.84
8585;BME280;7180;52.742;11.420;2024-01-25T12:16:35;76586.03;;;-142.35;55.69
8585;BME280;7180;52.742;11.420;2024-01-25T12:19:00;76592.09;;;-142.35;55.60
8585;BME280;7180;52.742;11.420;2024-01-25T12:21:25;76582.00;;;-142.35;55.71
8585;BME280;7180;52.742;11.420;2024-01-25T12:23:51;76588.06;;;-142.35;55.58
8585;BME280;7180;52.742;11.420;2024-01-25T12:26:16;76588.06;;;-142.35;55.68
8585;BME280;7180;52.742;11.420;2024-01-25T12:28:42;76640.47;;;-142.35;56.07
8585;BME280;7180;52.742;11.420;2024-01-25T12:31:08;76618.28;;;-142.35;55.83
8585;BME280;7180;52.742;11.420;2024-01-25T12:33:34;76628.38;;;-142.35;55.79
8585;BME280;7180;52.742;11.420;2024-01-25T12:36:01;76648.53;;;-142.35;56.03
8585;BME280;7180;52.742;11.420;2024-01-25T12:38:28;76672.72;;;-142.35;56.05
8585;BME280;7180;52.742;11.420;2024-01-25T12:40:54;76656.59;;;-142.35;55.79
8585;BME280;7180;52.742;11.420;2024-01-25T12:43:20;76680.78;;;-142.35;55.85